Time;durP1;ratioP1;P1;durP2;ratioP2;P2;SDS_P1;SDS_P2;PMS_P1;PMS_P2;Temp;Humidity;BMP_temperature;BMP_pressure;BME280_temperature;BME280_humidity;BME280_pressure;Samples;Min_cycle;Max_cycle;Signal;HPM_P1;HPM_P2
2023/12/17 00:01:31;;;;;;;35.00;5.90;;;8.80;99.90;;;;;;5057039;28;20513;-85
2023/12/17 00:03:57;;;;;;;29.80;5.60;;;8.80;99.90;;;;;;5038128;28;20666;-85
2023/12/17 00:06:22;;;;;;;30.10;4.80;;;8.80;99.90;;;;;;5056118;28;20154;-85
2023/12/17 00:08:48;;;;;;;32.97;5.43;;;8.70;99.90;;;;;;5056036;28;20165;-85
2023/12/17 00:11:14;;;;;;;35.73;6.37;;;8.70;99.90;;;;;;5055905;28;20276;-85
2023/12/17 00:13:40;;;;;;;32.80;5.15;;;8.80;99.90;;;;;;5057001;28;20184;-85
2023/12/17 00:16:06;;;;;;;28.83;5.60;;;8.80;99.90;;;;;;5056456;28;20165;-85
2023/12/17 00:18:32;;;;;;;30.65;5.82;;;8.80;99.90;;;;;;5038358;28;20215;-85
2023/12/17 00:20:58;;;;;;;32.17;5.70;;;8.90;99.90;;;;;;5038298;28;20290;-85
2023/12/17 00:23:24;;;;;;;30.23;5.40;;;8.80;99.90;;;;;;5037799;28;20234;-85
2023/12/17 00:25:49;;;;;;;29.60;6.10;;;8.80;99.90;;;;;;5056151;28;20248;-85
2023/12/17 00:28:15;;;;;;;31.60;5.13;;;8.80;99.90;;;;;;5038313;28;20177;-85
2023/12/17 00:30:41;;;;;;;31.13;5.50;;;8.80;99.90;;;;;;5055779;28;20189;-85
2023/12/17 00:33:06;;;;;;;26.93;3.50;;;8.90;99.90;;;;;;5055645;28;20165;-85
2023/12/17 00:35:32;;;;;;;30.57;5.23;;;8.90;99.90;;;;;;5055662;28;20213;-85
2023/12/17 00:38:01;;;;;;;27.00;4.13;;;8.90;99.90;;;;;;5055885;28;20638;-85
2023/12/17 00:40:27;;;;;;;25.40;3.90;;;8.90;99.90;;;;;;5055703;28;20177;-85
2023/12/17 00:42:52;;;;;;;25.90;4.03;;;8.90;99.90;;;;;;5055429;28;20527;-84
2023/12/17 00:45:18;;;;;;;26.07;3.90;;;8.90;99.90;;;;;;5055683;28;20188;-85
2023/12/17 00:47:43;;;;;;;30.07;4.60;;;8.90;99.90;;;;;;5055062;28;20170;-85
2023/12/17 00:50:09;;;;;;;26.67;4.00;;;8.90;99.90;;;;;;5055360;28;20215;-85
2023/12/17 00:52:35;;;;;;;27.60;4.43;;;8.90;99.90;;;;;;5037318;28;20574;-85
2023/12/17 00:55:00;;;;;;;26.77;3.60;;;8.90;99.90;;;;;;5055288;28;20236;-85
2023/12/17 00:57:26;;;;;;;24.80;4.13;;;8.90;99.90;;;;;;5037153;28;20165;-85
2023/12/17 00:59:52;;;;;;;25.73;4.20;;;8.90;99.90;;;;;;5055381;28;20593;-85
2023/12/17 01:02:17;;;;;;;28.00;4.00;;;9.00;99.90;;;;;;5055464;28;20539;-85
2023/12/17 01:04:43;;;;;;;25.93;3.80;;;8.90;99.90;;;;;;5055002;28;20616;-85
2023/12/17 01:07:09;;;;;;;28.47;4.03;;;9.00;99.90;;;;;;5055163;28;20184;-85
2023/12/17 01:09:34;;;;;;;23.50;3.07;;;8.90;99.90;;;;;;5037366;28;20666;-85
2023/12/17 01:12:03;;;;;;;26.20;3.80;;;8.90;99.90;;;;;;5055881;28;20645;-85
2023/12/17 01:14:32;;;;;;;24.80;3.20;;;8.90;99.90;;;;;;5037159;28;20192;-85
2023/12/17 01:16:58;;;;;;;28.35;5.10;;;8.80;99.90;;;;;;5036864;28;20161;-85
2023/12/17 01:19:24;;;;;;;26.02;4.43;;;8.90;99.90;;;;;;5036955;28;20203;-85
2023/12/17 01:21:49;;;;;;;27.83;3.87;;;8.90;99.90;;;;;;5054765;28;20180;-85
2023/12/17 01:24:18;;;;;;;30.17;4.37;;;8.90;99.90;;;;;;5037774;28;20275;-85
2023/12/17 01:26:45;;;;;;;26.73;3.53;;;8.80;99.90;;;;;;5037372;28;20250;-85
2023/12/17 01:29:14;;;;;;;25.42;3.42;;;8.80;99.90;;;;;;5054938;28;20157;-85
2023/12/17 01:31:39;;;;;;;29.90;3.90;;;8.70;99.90;;;;;;5054976;28;20161;-85
2023/12/17 01:34:07;;;;;;;26.10;3.20;;;8.70;99.90;;;;;;5054970;28;20264;-85
2023/12/17 01:36:32;;;;;;;26.00;3.63;;;8.70;99.90;;;;;;5036913;28;20165;-85
2023/12/17 01:38:58;;;;;;;26.20;3.03;;;8.70;99.90;;;;;;5054908;28;20184;-85
2023/12/17 01:41:23;;;;;;;29.87;3.53;;;8.60;99.90;;;;;;5054715;28;20176;-85
2023/12/17 01:43:49;;;;;;;26.57;3.10;;;8.60;99.90;;;;;;5054827;28;20223;-85
2023/12/17 01:46:15;;;;;;;25.80;3.40;;;8.60;99.90;;;;;;5054414;28;20166;-85
2023/12/17 01:48:41;;;;;;;25.15;2.97;;;8.70;99.90;;;;;;5058830;28;20619;-85
2023/12/17 01:51:08;;;;;;;27.35;3.75;;;8.60;99.90;;;;;;5058771;28;20666;-85
2023/12/17 01:53:34;;;;;;;29.80;3.95;;;8.60;99.90;;;;;;5040629;28;20311;-85
2023/12/17 01:56:00;;;;;;;26.10;3.00;;;8.60;99.90;;;;;;5058171;28;20192;-85
2023/12/17 01:58:30;;;;;;;27.70;3.60;;;8.60;99.90;;;;;;5058703;28;20172;-85
2023/12/17 02:00:56;;;;;;;28.38;3.40;;;8.60;99.90;;;;;;5058408;28;20236;-85
2023/12/17 02:03:22;;;;;;;27.98;3.85;;;8.60;99.90;;;;;;5058525;28;20642;-85
2023/12/17 02:05:48;;;;;;;32.40;4.50;;;8.60;99.90;;;;;;5058443;28;20189;-85
2023/12/17 02:08:13;;;;;;;27.87;3.73;;;8.70;99.90;;;;;;5058327;28;20594;-85
2023/12/17 02:10:39;;;;;;;25.23;3.40;;;8.70;99.90;;;;;;5058188;28;20658;-85
2023/12/17 02:13:09;;;;;;;25.37;3.40;;;8.70;99.90;;;;;;5039904;28;20172;-85
2023/12/17 02:15:38;;;;;;;26.60;3.80;;;8.80;99.90;;;;;;5057786;28;20201;-85
2023/12/17 02:18:04;;;;;;;26.10;3.38;;;8.80;99.90;;;;;;5040670;28;20165;-85
2023/12/17 02:20:30;;;;;;;27.30;2.88;;;8.70;99.90;;;;;;5040447;28;20222;-85
2023/12/17 02:23:00;;;;;;;29.33;2.63;;;8.70;99.90;;;;;;5058224;28;20252;-85
2023/12/17 02:25:26;;;;;;;26.73;3.47;;;8.70;99.90;;;;;;5040197;28;20446;-85
2023/12/17 02:27:55;;;;;;;29.70;3.67;;;8.60;99.90;;;;;;5040280;28;20168;-85
2023/12/17 02:30:20;;;;;;;24.67;3.20;;;8.60;99.90;;;;;;5058206;28;20300;-85
2023/12/17 02:32:46;;;;;;;25.90;3.10;;;8.60;99.90;;;;;;5058087;28;20201;-85
2023/12/17 02:35:11;;;;;;;26.53;3.47;;;8.60;99.90;;;;;;5040667;28;20185;-85
2023/12/17 02:37:37;;;;;;;26.57;3.07;;;8.60;99.90;;;;;;5061419;28;20219;-85
2023/12/17 02:40:03;;;;;;;28.70;3.47;;;8.60;99.90;;;;;;5042916;28;20169;-85
2023/12/17 02:42:32;;;;;;;27.45;3.33;;;8.60;99.90;;;;;;5060695;28;20165;-85
2023/12/17 02:44:57;;;;;;;26.02;3.50;;;8.70;99.90;;;;;;5042375;28;20242;-85
2023/12/17 02:47:23;;;;;;;26.77;3.40;;;8.60;99.90;;;;;;5060359;28;20177;-85
2023/12/17 02:49:49;;;;;;;27.47;3.70;;;8.70;99.90;;;;;;5060200;28;20685;-85
2023/12/17 02:52:14;;;;;;;26.40;2.90;;;8.70;99.90;;;;;;5060987;28;20176;-85
2023/12/17 02:54:40;;;;;;;25.93;3.47;;;8.70;99.90;;;;;;5060579;28;20188;-85
2023/12/17 02:57:06;;;;;;;25.97;3.20;;;8.70;99.90;;;;;;5043601;28;20252;-85
2023/12/17 02:59:31;;;;;;;28.43;3.60;;;8.70;99.90;;;;;;5059676;28;20244;-85
2023/12/17 03:01:57;;;;;;;25.80;3.80;;;8.70;99.90;;;;;;5043558;28;20235;-85
2023/12/17 03:04:23;;;;;;;27.40;4.13;;;8.70;99.90;;;;;;5042408;28;20189;-85
2023/12/17 03:06:49;;;;;;;30.23;4.00;;;8.70;99.90;;;;;;5042152;28;20654;-85
2023/12/17 03:09:15;;;;;;;27.27;3.57;;;8.70;99.90;;;;;;5042517;28;20264;-85
2023/12/17 03:11:41;;;;;;;28.27;3.97;;;8.70;99.90;;;;;;5043885;28;20173;-85
2023/12/17 03:14:10;;;;;;;29.40;3.47;;;8.70;99.90;;;;;;5060638;28;20211;-85
2023/12/17 03:16:36;;;;;;;28.85;3.50;;;8.70;99.90;;;;;;5060451;28;20402;-85
2023/12/17 03:19:02;;;;;;;26.02;4.03;;;8.70;99.90;;;;;;5042157;28;20654;-85
2023/12/17 03:21:27;;;;;;;28.20;4.07;;;8.70;99.90;;;;;;5060515;28;20169;-85
2023/12/17 03:23:53;;;;;;;30.17;3.80;;;8.70;99.90;;;;;;5042350;28;20519;-85
2023/12/17 03:26:22;;;;;;;28.05;3.70;;;8.70;99.90;;;;;;5042110;28;20230;-85
2023/12/17 03:28:48;;;;;;;32.15;5.53;;;8.70;99.90;;;;;;5041787;28;20183;-86
2023/12/17 03:31:15;;;;;;;30.80;3.70;;;8.70;99.90;;;;;;5059783;28;20729;-85
2023/12/17 03:33:44;;;;;;;28.30;3.42;;;8.60;99.90;;;;;;5042088;28;20169;-85
2023/12/17 03:36:14;;;;;;;28.58;3.83;;;8.60;99.90;;;;;;5042253;28;20519;-85
2023/12/17 03:38:41;;;;;;;26.45;3.58;;;8.60;99.90;;;;;;5044648;28;20162;-85
2023/12/17 03:41:23;;;;;;;27.05;4.05;;;8.70;99.90;;;;;;5042991;28;20577;-85
2023/12/17 03:43:56;;;;;;;28.90;4.28;;;8.80;99.90;;;;;;5059485;28;20166;-85
2023/12/17 03:46:23;;;;;;;27.92;3.25;;;8.70;99.90;;;;;;5058854;28;20172;-85
2023/12/17 03:48:54;;;;;;;27.48;4.13;;;8.80;99.90;;;;;;5041444;28;20173;-85
2023/12/17 03:51:20;;;;;;;26.83;3.13;;;8.80;99.90;;;;;;5058912;28;20263;-85
2023/12/17 03:53:46;;;;;;;26.50;2.93;;;8.80;99.90;;;;;;5058835;28;20235;-85
2023/12/17 03:56:13;;;;;;;27.80;3.33;;;8.80;99.90;;;;;;5058876;28;20524;-85
2023/12/17 03:58:39;;;;;;;28.73;3.88;;;8.80;99.90;;;;;;5059239;28;20650;-85
2023/12/17 04:01:07;;;;;;;28.55;3.75;;;8.80;99.90;;;;;;5040894;28;20184;-85
2023/12/17 04:03:33;;;;;;;26.23;3.70;;;8.70;99.90;;;;;;5059029;28;20176;-85
2023/12/17 04:06:00;;;;;;;26.55;3.90;;;8.70;99.90;;;;;;5059279;28;20177;-85
2023/12/17 04:08:26;;;;;;;26.10;3.30;;;8.70;99.90;;;;;;5058958;28;20187;-85
2023/12/17 04:10:52;;;;;;;26.48;3.15;;;8.70;99.90;;;;;;5057936;28;20265;-85
2023/12/17 04:13:18;;;;;;;24.67;2.60;;;8.70;99.90;;;;;;5040567;28;20642;-85
2023/12/17 04:15:44;;;;;;;25.25;3.13;;;8.80;99.90;;;;;;5040672;28;20550;-85
2023/12/17 04:18:10;;;;;;;28.53;3.57;;;8.70;99.90;;;;;;5058223;28;20169;-85
2023/12/17 04:20:35;;;;;;;25.90;3.33;;;8.80;99.90;;;;;;5059493;28;20404;-85
2023/12/17 04:23:02;;;;;;;28.60;3.37;;;8.80;99.90;;;;;;5059070;28;20164;-85
2023/12/17 04:25:28;;;;;;;24.67;2.80;;;8.70;99.90;;;;;;5041071;28;20562;-85
2023/12/17 04:27:53;;;;;;;26.90;4.23;;;8.70;99.90;;;;;;5059312;28;20188;-85
2023/12/17 04:30:19;;;;;;;28.57;4.10;;;8.70;99.90;;;;;;5041315;28;20227;-85
2023/12/17 04:32:45;;;;;;;25.37;3.10;;;8.60;99.90;;;;;;5040547;28;20169;-85
2023/12/17 04:35:11;;;;;;;25.10;3.03;;;8.60;99.90;;;;;;5059706;28;20315;-85
2023/12/17 04:37:36;;;;;;;28.73;3.30;;;8.60;99.90;;;;;;5059490;28;20168;-85
2023/12/17 04:40:03;;;;;;;27.47;3.67;;;8.60;99.90;;;;;;5059798;28;20242;-85
2023/12/17 04:42:32;;;;;;;26.45;3.28;;;8.60;99.90;;;;;;5041525;28;20169;-85
2023/12/17 04:44:58;;;;;;;27.85;4.13;;;8.60;99.90;;;;;;5059201;28;20606;-85
2023/12/17 04:47:23;;;;;;;33.50;4.27;;;8.60;99.90;;;;;;5058547;28;20200;-85
2023/12/17 04:49:49;;;;;;;28.67;3.80;;;8.60;99.90;;;;;;5040870;28;20189;-85
2023/12/17 04:52:15;;;;;;;29.10;3.53;;;8.60;99.90;;;;;;5059392;28;20200;-85
2023/12/17 04:54:41;;;;;;;29.10;3.63;;;8.60;99.90;;;;;;5058140;28;20196;-85
2023/12/17 04:57:06;;;;;;;30.40;4.00;;;8.60;99.90;;;;;;5041017;28;20420;-85
2023/12/17 04:59:32;;;;;;;30.17;4.17;;;8.60;99.90;;;;;;5057903;28;20164;-85
2023/12/17 05:01:57;;;;;;;29.37;4.40;;;8.60;99.90;;;;;;5058294;28;20165;-85
2023/12/17 05:04:23;;;;;;;30.97;3.70;;;8.70;99.90;;;;;;5057806;28;20271;-85
2023/12/17 05:06:49;;;;;;;42.63;4.27;;;8.70;99.90;;;;;;5058055;28;20162;-85
2023/12/17 05:09:14;;;;;;;27.07;4.00;;;8.70;99.90;;;;;;5057489;28;20240;-85
2023/12/17 05:11:40;;;;;;;29.17;4.73;;;8.70;99.90;;;;;;5039292;28;20205;-85
2023/12/17 05:14:06;;;;;;;27.27;4.17;;;8.60;99.90;;;;;;5056342;28;20211;-85
2023/12/17 05:16:31;;;;;;;29.17;3.50;;;8.60;99.90;;;;;;5040022;28;20161;-85
2023/12/17 05:18:57;;;;;;;29.60;4.23;;;8.60;99.90;;;;;;5055965;28;20161;-85
2023/12/17 05:21:23;;;;;;;28.90;4.00;;;8.60;99.90;;;;;;5036557;28;20250;-85
2023/12/17 05:23:48;;;;;;;28.70;4.50;;;8.50;99.90;;;;;;5037484;28;20574;-85
2023/12/17 05:26:14;;;;;;;28.07;4.03;;;8.50;99.90;;;;;;5037639;28;20234;-85
2023/12/17 05:28:41;;;;;;;28.90;4.07;;;8.50;99.90;;;;;;5055765;28;20176;-85
2023/12/17 05:31:07;;;;;;;30.58;4.07;;;8.50;99.90;;;;;;5058890;28;20723;-85
2023/12/17 05:33:33;;;;;;;27.85;3.47;;;8.50;99.90;;;;;;5055825;28;20219;-86
2023/12/17 05:35:59;;;;;;;30.60;4.57;;;8.50;99.90;;;;;;5037265;28;20618;-85
2023/12/17 05:38:28;;;;;;;30.40;4.97;;;8.50;99.90;;;;;;5055271;28;20162;-85
2023/12/17 05:40:54;;;;;;;27.08;4.25;;;8.50;99.90;;;;;;5037483;28;20177;-85
2023/12/17 05:43:20;;;;;;;28.42;4.13;;;8.50;99.90;;;;;;5055056;28;20244;-85
2023/12/17 05:45:45;;;;;;;27.77;4.30;;;8.50;99.90;;;;;;5055287;28;20223;-85
2023/12/17 05:48:11;;;;;;;27.57;3.33;;;8.50;99.90;;;;;;5037588;28;20169;-85
2023/12/17 05:50:37;;;;;;;27.53;3.80;;;8.40;99.90;;;;;;5055454;28;20248;-85
2023/12/17 05:53:03;;;;;;;27.30;3.70;;;8.40;99.90;;;;;;5037198;28;20672;-85
2023/12/17 05:55:28;;;;;;;26.80;3.70;;;8.40;99.90;;;;;;5037208;28;20454;-85
2023/12/17 05:57:54;;;;;;;29.07;4.07;;;8.40;99.90;;;;;;5055317;28;20268;-85
2023/12/17 06:00:20;;;;;;;25.70;3.40;;;8.40;99.90;;;;;;5055402;28;20597;-85
2023/12/17 06:02:45;;;;;;;28.67;4.05;;;8.40;99.90;;;;;;5055074;28;20157;-85
2023/12/17 06:05:11;;;;;;;28.60;4.10;;;8.40;99.90;;;;;;5055505;28;20562;-85
2023/12/17 06:07:37;;;;;;;29.30;4.43;;;8.40;99.90;;;;;;5037907;28;20165;-85
2023/12/17 06:10:06;;;;;;;27.47;3.30;;;8.40;99.90;;;;;;5055912;28;20193;-85
2023/12/17 06:12:32;;;;;;;27.15;3.40;;;8.40;99.90;;;;;;5037282;28;20166;-85
2023/12/17 06:14:57;;;;;;;27.83;3.17;;;8.40;99.90;;;;;;5056210;28;20181;-85
2023/12/17 06:17:38;;;;;;;27.37;4.30;;;8.30;99.90;;;;;;5056048;28;20161;-85
2023/12/17 06:20:04;;;;;;;25.55;2.70;;;8.30;99.90;;;;;;5056173;28;20566;-85
2023/12/17 06:22:34;;;;;;;27.60;3.40;;;8.40;99.90;;;;;;5056380;28;20197;-85
2023/12/17 06:25:03;;;;;;;26.65;3.25;;;8.40;99.90;;;;;;5056269;28;20534;-85
2023/12/17 06:27:30;;;;;;;28.17;2.80;;;8.40;99.90;;;;;;5055447;28;20169;-85
2023/12/17 06:29:56;;;;;;;25.52;3.17;;;8.40;99.90;;;;;;5055316;28;20201;-85
2023/12/17 06:32:22;;;;;;;26.83;3.30;;;8.40;99.90;;;;;;5054948;28;20634;-85
2023/12/17 06:34:47;;;;;;;29.15;3.10;;;8.40;99.90;;;;;;5059244;28;20177;-85
2023/12/17 06:37:13;;;;;;;25.60;2.90;;;8.40;99.90;;;;;;5058645;28;20167;-85
2023/12/17 06:39:42;;;;;;;25.57;3.37;;;8.40;99.90;;;;;;5041019;28;20634;-85
2023/12/17 06:42:11;;;;;;;25.17;2.60;;;8.40;99.90;;;;;;5057989;28;20256;-85
2023/12/17 06:44:37;;;;;;;27.63;3.60;;;8.40;99.90;;;;;;5058391;28;20204;-85
2023/12/17 06:47:03;;;;;;;25.10;2.92;;;8.30;99.90;;;;;;5057983;28;20199;-85
2023/12/17 06:49:30;;;;;;;29.38;3.45;;;8.40;99.90;;;;;;5058448;28;20211;-85
2023/12/17 06:51:55;;;;;;;27.35;3.80;;;8.40;99.90;;;;;;5058548;28;20187;-85
2023/12/17 06:54:21;;;;;;;26.23;3.70;;;8.40;99.90;;;;;;5057765;28;20247;-85
2023/12/17 06:56:49;;;;;;;26.80;3.30;;;8.40;99.90;;;;;;5058080;28;20153;-85
2023/12/17 06:59:15;;;;;;;27.80;3.90;;;8.40;99.90;;;;;;5058281;28;20176;-85
2023/12/17 07:01:41;;;;;;;25.50;3.10;;;8.40;99.90;;;;;;5057193;28;20538;-85
2023/12/17 07:04:06;;;;;;;26.30;4.30;;;8.40;99.90;;;;;;5057954;28;20661;-85
2023/12/17 07:06:32;;;;;;;25.57;3.47;;;8.30;99.90;;;;;;5040154;28;20211;-84
2023/12/17 07:08:58;;;;;;;26.40;3.47;;;8.40;99.90;;;;;;5057203;28;20214;-84
2023/12/17 07:11:23;;;;;;;29.80;4.13;;;8.40;99.90;;;;;;5056850;28;20550;-84
2023/12/17 07:13:49;;;;;;;25.27;3.20;;;8.40;99.90;;;;;;5057002;28;20162;-85
2023/12/17 07:16:25;;;;;;;26.50;4.03;;;8.40;99.90;;;;;;5057577;28;20157;-84
2023/12/17 07:18:51;;;;;;;25.90;3.60;;;8.40;99.90;;;;;;5039050;28;20180;-85
2023/12/17 07:21:17;;;;;;;26.58;3.78;;;8.40;99.90;;;;;;5057004;28;20176;-84
2023/12/17 07:23:45;;;;;;;26.70;3.30;;;8.40;99.90;;;;;;5057300;28;20578;-85
2023/12/17 07:26:11;;;;;;;27.52;3.90;;;8.40;99.90;;;;;;5056606;28;20176;-84
2023/12/17 07:28:40;;;;;;;27.83;4.07;;;8.40;99.90;;;;;;5038784;28;20173;-85
2023/12/17 07:31:05;;;;;;;28.13;3.78;;;8.50;99.90;;;;;;5057302;28;20181;-85
2023/12/17 07:33:31;;;;;;;28.50;3.67;;;8.50;99.90;;;;;;5056493;28;20184;-84
2023/12/17 07:35:57;;;;;;;26.80;3.97;;;8.40;99.90;;;;;;5038517;28;20431;-84
2023/12/17 07:38:23;;;;;;;28.43;3.93;;;8.40;99.90;;;;;;5056956;28;20172;-85
2023/12/17 07:40:48;;;;;;;27.50;4.43;;;8.40;99.90;;;;;;5039400;28;20169;-85
2023/12/17 07:43:14;;;;;;;26.60;4.23;;;8.40;99.90;;;;;;5056796;28;20169;-85
2023/12/17 07:45:40;;;;;;;27.67;3.83;;;8.40;99.90;;;;;;5056042;28;20307;-85
2023/12/17 07:48:06;;;;;;;26.85;3.72;;;8.40;99.90;;;;;;5040074;28;20169;-85
2023/12/17 07:50:31;;;;;;;27.30;4.13;;;8.40;99.90;;;;;;5058868;28;20189;-85
2023/12/17 07:52:57;;;;;;;26.80;4.10;;;8.40;99.90;;;;;;5058998;28;20442;-84
2023/12/17 07:55:23;;;;;;;28.40;4.53;;;8.40;99.90;;;;;;5057382;28;20224;-85
2023/12/17 07:57:48;;;;;;;27.47;4.17;;;8.40;99.90;;;;;;5056454;28;20157;-85
2023/12/17 08:00:15;;;;;;;27.17;3.70;;;8.40;99.90;;;;;;5056443;28;20184;-85
2023/12/17 08:02:45;;;;;;;27.27;3.90;;;8.40;99.90;;;;;;5038648;28;20650;-84
2023/12/17 08:05:10;;;;;;;32.88;4.30;;;8.40;99.90;;;;;;5056006;28;20189;-85
2023/12/17 08:07:37;;;;;;;28.20;4.13;;;8.50;99.90;;;;;;5056548;28;20169;-85
2023/12/17 08:10:57;;;;;;;;;;;;;;;;;;;;;
2023/12/17 08:13:13;;;;;;;27.35;3.60;;;8.50;99.90;;;;;;5025981;28;20519;-84
2023/12/17 08:15:38;;;;;;;29.20;4.70;;;8.40;99.90;;;;;;5056136;28;20185;-85
2023/12/17 08:18:04;;;;;;;26.30;3.40;;;8.50;99.90;;;;;;5056298;28;20166;-85
2023/12/17 08:20:30;;;;;;;27.60;3.77;;;8.50;99.90;;;;;;5038291;28;20419;-85
2023/12/17 08:22:58;;;;;;;27.60;4.50;;;8.50;99.90;;;;;;5038321;28;20203;-85
2023/12/17 08:25:27;;;;;;;29.30;4.57;;;8.50;99.90;;;;;;5055156;28;20239;-84
2023/12/17 08:28:11;;;;;;;27.50;3.33;;;8.50;99.90;;;;;;5055811;28;20700;-85
2023/12/17 08:30:49;;;;;;;;;;;;;;;;;;;;;
2023/12/17 08:33:18;;;;;;;27.02;3.90;;;8.50;99.90;;;;;;5051138;28;20179;-84
2023/12/17 08:36:06;;;;;;;26.63;4.18;;;8.50;99.90;;;;;;5056299;28;20260;-85
2023/12/17 08:38:31;;;;;;;26.77;4.10;;;8.50;99.90;;;;;;5055264;28;20203;-85
2023/12/17 08:41:05;;;;;;;28.23;4.00;;;8.50;99.90;;;;;;5055961;28;20165;-84
2023/12/17 08:43:33;;;;;;;26.40;3.85;;;8.50;99.90;;;;;;5055667;28;20149;-84
2023/12/17 08:45:59;;;;;;;31.20;4.90;;;8.50;99.90;;;;;;5055262;28;20669;-84
2023/12/17 08:48:25;;;;;;;27.37;4.40;;;8.50;99.90;;;;;;5037918;28;20176;-85
2023/12/17 08:50:50;;;;;;;28.33;4.57;;;8.60;99.90;;;;;;5056369;28;20271;-85
2023/12/17 08:53:19;;;;;;;28.27;4.37;;;8.60;99.90;;;;;;5054914;28;20169;-85
2023/12/17 08:55:44;;;;;;;25.73;3.80;;;8.60;99.90;;;;;;5055353;28;20189;-84
2023/12/17 08:58:10;;;;;;;28.50;3.83;;;8.50;99.90;;;;;;5038074;28;20166;-84
2023/12/17 09:00:36;;;;;;;27.33;3.60;;;8.40;99.90;;;;;;5055829;28;20161;-84
2023/12/17 09:03:02;;;;;;;27.23;4.00;;;8.40;99.90;;;;;;5038283;28;20173;-84
2023/12/17 09:05:28;;;;;;;26.88;3.90;;;8.40;99.90;;;;;;5038240;28;20199;-84
2023/12/17 09:07:56;;;;;;;25.43;4.00;;;8.50;99.90;;;;;;5057206;28;20507;-84
2023/12/17 09:10:23;;;;;;;27.15;4.07;;;8.50;99.90;;;;;;5056232;28;20185;-84
2023/12/17 09:12:52;;;;;;;26.50;3.45;;;8.50;99.90;;;;;;5037916;28;20169;-84
2023/12/17 09:15:18;;;;;;;26.10;3.63;;;8.50;99.90;;;;;;5054700;28;20181;-84
2023/12/17 09:17:44;;;;;;;25.27;3.33;;;8.60;99.90;;;;;;5021139;28;20176;-84
2023/12/17 09:20:19;;;;;;;25.57;3.60;;;8.50;99.90;;;;;;5055194;28;20161;-84
2023/12/17 09:22:45;;;;;;;25.25;2.90;;;8.60;99.90;;;;;;5037628;28;20267;-84
2023/12/17 09:25:11;;;;;;;25.07;2.83;;;8.50;99.90;;;;;;5055221;28;20231;-84
2023/12/17 09:27:36;;;;;;;25.00;3.10;;;8.50;99.90;;;;;;5054395;28;20248;-84
2023/12/17 09:30:03;;;;;;;24.20;2.50;;;8.60;99.90;;;;;;5036315;28;20284;-84
2023/12/17 09:32:28;;;;;;;24.17;2.80;;;8.60;99.90;;;;;;5381495;23;20221;-84
2023/12/17 09:37:24;;;;;;;23.88;2.42;;;8.70;99.90;;;;;;5092681;28;20222;-84
2023/12/17 09:39:50;;;;;;;23.00;2.13;;;8.70;99.90;;;;;;5095746;28;20625;-84
2023/12/17 09:42:21;;;;;;;24.10;2.50;;;8.70;99.90;;;;;;5076860;28;20409;-84
2023/12/17 09:44:47;;;;;;;24.27;3.20;;;8.60;99.90;;;;;;5085777;28;20215;-84
2023/12/17 09:47:12;;;;;;;24.48;2.65;;;8.60;99.90;;;;;;5074838;28;20214;-84
2023/12/17 09:49:38;;;;;;;26.23;3.60;;;8.70;99.90;;;;;;5056724;28;20176;-84
2023/12/17 09:52:11;;;;;;;24.47;3.20;;;8.70;99.90;;;;;;5074971;28;20167;-84
2023/12/17 09:54:38;;;;;;;24.52;3.15;;;8.70;99.90;;;;;;5075512;28;20180;-84
2023/12/17 09:57:06;;;;;;;23.75;2.63;;;8.70;99.90;;;;;;5075744;28;20168;-84
2023/12/17 09:59:32;;;;;;;24.17;3.00;;;8.70;99.90;;;;;;5075376;28;20206;-84
2023/12/17 10:01:58;;;;;;;23.80;2.80;;;8.70;99.90;;;;;;5075165;28;20153;-84
2023/12/17 10:04:24;;;;;;;24.20;3.20;;;8.80;99.90;;;;;;5057714;28;20777;-84
2023/12/17 10:06:51;;;;;;;24.05;2.95;;;8.80;99.90;;;;;;5073779;28;20285;-83
2023/12/17 10:09:17;;;;;;;24.30;3.30;;;8.90;99.90;;;;;;5076899;28;20184;-84
2023/12/17 10:11:43;;;;;;;22.83;2.67;;;8.90;99.90;;;;;;5060367;28;20273;-84
2023/12/17 10:14:25;;;;;;;23.20;3.33;;;8.90;99.90;;;;;;5078729;28;20792;-84
2023/12/17 10:16:51;;;;;;;22.35;2.75;;;9.00;99.90;;;;;;5079054;28;20371;-84
2023/12/17 10:19:18;;;;;;;23.37;3.20;;;9.00;99.90;;;;;;5061112;28;20290;-84
2023/12/17 10:21:44;;;;;;;23.67;3.22;;;8.90;99.90;;;;;;5079497;28;20413;-84
2023/12/17 10:24:10;;;;;;;23.90;3.53;;;8.80;99.90;;;;;;5061683;28;20188;-83
2023/12/17 10:26:45;;;;;;;23.25;3.50;;;8.90;99.90;;;;;;5079475;28;20490;-84
2023/12/17 10:29:18;;;;;;;24.05;3.17;;;8.90;99.90;;;;;;5079601;28;20156;-84
2023/12/17 10:31:45;;;;;;;23.65;3.40;;;8.80;99.90;;;;;;5061747;28;20192;-84
2023/12/17 10:34:19;;;;;;;24.40;3.55;;;8.90;99.90;;;;;;5079000;28;20259;-84
2023/12/17 10:36:48;;;;;;;25.42;3.88;;;9.00;99.90;;;;;;5078912;28;20544;-84
2023/12/17 10:39:19;;;;;;;24.30;3.75;;;9.10;99.90;;;;;;5078362;28;20173;-84
2023/12/17 10:41:47;;;;;;;22.92;3.92;;;9.10;99.90;;;;;;5061160;28;20169;-84
2023/12/17 10:44:15;;;;;;;25.00;3.75;;;9.20;99.90;;;;;;5078865;28;20234;-84
2023/12/17 10:46:42;;;;;;;22.95;3.65;;;9.20;99.90;;;;;;5079046;28;20656;-84
2023/12/17 10:49:09;;;;;;;25.00;3.17;;;9.40;99.90;;;;;;5078509;28;20336;-84
2023/12/17 10:51:39;;;;;;;24.48;4.32;;;9.60;99.90;;;;;;5078552;28;20291;-84
2023/12/17 10:54:06;;;;;;;22.38;2.72;;;9.50;99.90;;;;;;5060849;28;20673;-84
2023/12/17 10:56:39;;;;;;;23.10;2.70;;;9.40;99.90;;;;;;5060370;28;20259;-84
2023/12/17 10:59:20;;;;;;;22.88;3.05;;;9.50;99.90;;;;;;5078422;28;20207;-84
2023/12/17 11:01:48;;;;;;;23.73;3.20;;;9.50;99.90;;;;;;5077950;28;20610;-84
2023/12/17 11:04:14;;;;;;;22.15;3.08;;;9.60;99.90;;;;;;5077915;28;20184;-84
2023/12/17 11:06:40;;;;;;;22.77;3.50;;;9.60;99.90;;;;;;5077989;28;20200;-84
2023/12/17 11:09:05;;;;;;;24.57;3.07;;;9.50;99.90;;;;;;5078624;28;20214;-84
2023/12/17 11:11:32;;;;;;;21.50;2.80;;;9.50;99.90;;;;;;5077773;28;20989;-84
2023/12/17 11:14:02;;;;;;;21.35;2.53;;;9.50;99.90;;;;;;5059996;28;20250;-84
2023/12/17 11:16:29;;;;;;;21.65;2.90;;;9.70;99.90;;;;;;5060658;28;20244;-84
2023/12/17 11:19:01;;;;;;;21.63;2.75;;;9.50;99.90;;;;;;5077843;28;20161;-84
2023/12/17 11:21:28;;;;;;;21.55;2.92;;;9.50;99.90;;;;;;5077848;28;20152;-84
2023/12/17 11:23:55;;;;;;;22.05;2.88;;;9.50;99.90;;;;;;5078233;28;20179;-84
2023/12/17 11:26:21;;;;;;;22.95;3.10;;;9.60;99.90;;;;;;5078019;28;20494;-84
2023/12/17 11:28:48;;;;;;;22.40;3.00;;;9.60;99.90;;;;;;5077614;28;20183;-84
2023/12/17 11:31:14;;;;;;;23.90;3.00;;;9.50;99.90;;;;;;5077526;28;20185;-84
2023/12/17 11:33:41;;;;;;;21.80;2.92;;;9.60;99.90;;;;;;5076372;28;20183;-83
2023/12/17 11:36:08;;;;;;;21.73;2.50;;;9.70;99.90;;;;;;5058949;28;20702;-84
2023/12/17 11:38:37;;;;;;;25.65;3.63;;;9.50;99.90;;;;;;5075735;28;20412;-84
2023/12/17 11:41:04;;;;;;;24.48;3.65;;;9.50;99.90;;;;;;5058950;28;20516;-84
2023/12/17 11:43:30;;;;;;;24.15;3.50;;;9.40;99.90;;;;;;5060014;28;20181;-84
2023/12/17 11:45:56;;;;;;;23.13;3.55;;;9.30;99.90;;;;;;5078347;28;20306;-84
2023/12/17 11:48:26;;;;;;;24.57;3.37;;;9.30;99.90;;;;;;5077570;28;20196;-84
2023/12/17 11:50:56;;;;;;;24.00;3.63;;;9.30;99.90;;;;;;5077477;28;20472;-84
2023/12/17 11:53:23;;;;;;;24.25;3.50;;;9.30;99.90;;;;;;5060862;28;20637;-84
2023/12/17 11:55:55;;;;;;;22.50;3.38;;;9.30;99.90;;;;;;5078416;28;20214;-84
2023/12/17 11:58:22;;;;;;;25.13;3.40;;;9.40;99.90;;;;;;5078428;28;20244;-84
2023/12/17 12:01:12;;;;;;;22.20;2.80;;;9.50;99.90;;;;;;5078006;28;20531;-84
2023/12/17 12:03:39;;;;;;;22.30;3.25;;;9.40;99.90;;;;;;5079234;28;20157;-84
2023/12/17 12:06:09;;;;;;;22.63;3.20;;;9.40;99.90;;;;;;5079249;28;20164;-83
2023/12/17 12:08:52;;;;;;;26.25;3.85;;;9.40;99.90;;;;;;5078537;28;20172;-84
2023/12/17 12:11:19;;;;;;;25.00;3.60;;;9.40;99.90;;;;;;5078807;28;20188;-84
2023/12/17 12:13:50;;;;;;;23.88;3.35;;;9.30;99.90;;;;;;5078605;28;20194;-84
2023/12/17 12:16:17;;;;;;;25.58;4.00;;;9.30;99.90;;;;;;5060498;28;20164;-84
2023/12/17 12:18:43;;;;;;;23.55;3.13;;;9.20;99.90;;;;;;5060048;28;20172;-84
2023/12/17 12:21:21;;;;;;;22.75;3.10;;;9.30;99.90;;;;;;5078081;28;20580;-84
2023/12/17 12:23:52;;;;;;;23.33;2.90;;;9.30;99.90;;;;;;5077965;28;20144;-84
2023/12/17 12:26:18;;;;;;;23.83;3.45;;;9.30;99.90;;;;;;5076621;28;20249;-84
2023/12/17 12:28:50;;;;;;;26.30;4.25;;;9.30;99.90;;;;;;5058750;28;20176;-84
2023/12/17 12:31:18;;;;;;;23.55;3.28;;;9.20;99.90;;;;;;5076641;28;20176;-84
2023/12/17 12:34:04;;;;;;;23.75;3.53;;;9.20;99.90;;;;;;5076379;28;20156;-84
2023/12/17 12:36:44;;;;;;;25.13;3.95;;;9.30;99.90;;;;;;5077174;28;20204;-84
2023/12/17 12:39:11;;;;;;;24.35;3.85;;;9.30;99.90;;;;;;5076985;28;20157;-84
2023/12/17 12:41:43;;;;;;;26.67;4.03;;;9.40;99.90;;;;;;5076326;28;20164;-84
2023/12/17 12:44:13;;;;;;;26.30;3.92;;;9.40;99.90;;;;;;5075950;28;20180;-84
2023/12/17 12:46:39;;;;;;;24.33;4.00;;;9.30;99.90;;;;;;5075347;28;20271;-84
2023/12/17 12:49:05;;;;;;;25.13;3.83;;;9.30;99.90;;;;;;5077227;28;20533;-84
2023/12/17 12:51:31;;;;;;;25.37;4.50;;;9.20;99.90;;;;;;5076983;28;20200;-84